sensor_id;sensor_type;location;lat;lon;timestamp;P1;durP1;ratioP1;P2;durP2;ratioP2
74064;SDS011;62421;51.412;5.432;2023-05-20T00:00:15;6.33;;;2.27;;
74064;SDS011;62421;51.412;5.432;2023-05-20T00:02:41;8.20;;;2.90;;
74064;SDS011;62421;51.412;5.432;2023-05-20T00:05:06;7.38;;;2.42;;
74064;SDS011;62421;51.412;5.432;2023-05-20T00:07:32;11.00;;;2.53;;
74064;SDS011;62421;51.412;5.432;2023-05-20T00:09:57;10.00;;;2.90;;
74064;SDS011;62421;51.412;5.432;2023-05-20T00:12:22;9.07;;;2.70;;
74064;SDS011;62421;51.412;5.432;2023-05-20T00:14:48;7.25;;;2.42;;
74064;SDS011;62421;51.412;5.432;2023-05-20T00:17:13;7.78;;;2.90;;
74064;SDS011;62421;51.412;5.432;2023-05-20T00:19:38;10.27;;;2.63;;
74064;SDS011;62421;51.412;5.432;2023-05-20T00:22:04;7.83;;;2.60;;
74064;SDS011;62421;51.412;5.432;2023-05-20T00:24:29;10.20;;;2.43;;
74064;SDS011;62421;51.412;5.432;2023-05-20T00:26:55;9.97;;;2.63;;
74064;SDS011;62421;51.412;5.432;2023-05-20T00:29:20;6.40;;;2.77;;
74064;SDS011;62421;51.412;5.432;2023-05-20T00:31:46;8.05;;;2.63;;
74064;SDS011;62421;51.412;5.432;2023-05-20T00:34:12;9.10;;;2.43;;
74064;SDS011;62421;51.412;5.432;2023-05-20T00:36:37;8.10;;;2.50;;
74064;SDS011;62421;51.412;5.432;2023-05-20T00:39:02;11.25;;;2.70;;
74064;SDS011;62421;51.412;5.432;2023-05-20T00:41:28;8.17;;;2.53;;
74064;SDS011;62421;51.412;5.432;2023-05-20T00:43:53;9.27;;;2.50;;
74064;SDS011;62421;51.412;5.432;2023-05-20T00:46:19;6.95;;;2.78;;
74064;SDS011;62421;51.412;5.432;2023-05-20T00:48:45;10.90;;;3.00;;
74064;SDS011;62421;51.412;5.432;2023-05-20T00:51:12;10.30;;;3.13;;
74064;SDS011;62421;51.412;5.432;2023-05-20T00:53:38;12.33;;;2.87;;
74064;SDS011;62421;51.412;5.432;2023-05-20T00:56:03;11.35;;;4.00;;
74064;SDS011;62421;51.412;5.432;2023-05-20T00:58:30;8.27;;;2.88;;
74064;SDS011;62421;51.412;5.432;2023-05-20T01:00:56;8.70;;;3.20;;
74064;SDS011;62421;51.412;5.432;2023-05-20T01:03:21;10.82;;;2.75;;
74064;SDS011;62421;51.412;5.432;2023-05-20T01:05:46;13.00;;;2.40;;
74064;SDS011;62421;51.412;5.432;2023-05-20T01:08:12;7.17;;;3.10;;
74064;SDS011;62421;51.412;5.432;2023-05-20T01:10:38;12.00;;;4.03;;
74064;SDS011;62421;51.412;5.432;2023-05-20T01:13:07;8.95;;;3.17;;
74064;SDS011;62421;51.412;5.432;2023-05-20T01:15:35;9.52;;;2.63;;
74064;SDS011;62421;51.412;5.432;2023-05-20T01:18:04;7.28;;;3.10;;
74064;SDS011;62421;51.412;5.432;2023-05-20T01:20:34;15.33;;;3.93;;
74064;SDS011;62421;51.412;5.432;2023-05-20T01:23:01;10.57;;;3.75;;
74064;SDS011;62421;51.412;5.432;2023-05-20T01:25:27;12.48;;;3.45;;
74064;SDS011;62421;51.412;5.432;2023-05-20T01:27:53;16.10;;;3.10;;
74064;SDS011;62421;51.412;5.432;2023-05-20T01:30:21;11.77;;;3.35;;
74064;SDS011;62421;51.412;5.432;2023-05-20T01:33:03;14.48;;;3.30;;
74064;SDS011;62421;51.412;5.432;2023-05-20T01:35:31;8.18;;;3.58;;
74064;SDS011;62421;51.412;5.432;2023-05-20T01:37:57;10.60;;;3.80;;
74064;SDS011;62421;51.412;5.432;2023-05-20T01:40:24;13.43;;;4.07;;
74064;SDS011;62421;51.412;5.432;2023-05-20T01:42:50;9.57;;;3.78;;
74064;SDS011;62421;51.412;5.432;2023-05-20T01:45:19;15.70;;;3.95;;
74064;SDS011;62421;51.412;5.432;2023-05-20T01:47:44;9.52;;;4.10;;
74064;SDS011;62421;51.412;5.432;2023-05-20T01:50:10;12.57;;;4.20;;
74064;SDS011;62421;51.412;5.432;2023-05-20T01:52:35;12.43;;;3.57;;
74064;SDS011;62421;51.412;5.432;2023-05-20T01:55:01;11.97;;;3.93;;
74064;SDS011;62421;51.412;5.432;2023-05-20T01:57:26;10.17;;;3.63;;
74064;SDS011;62421;51.412;5.432;2023-05-20T01:59:51;8.70;;;3.80;;
74064;SDS011;62421;51.412;5.432;2023-05-20T02:02:17;8.82;;;3.70;;
74064;SDS011;62421;51.412;5.432;2023-05-20T02:04:44;9.82;;;3.33;;
74064;SDS011;62421;51.412;5.432;2023-05-20T02:07:12;18.00;;;3.83;;
74064;SDS011;62421;51.412;5.432;2023-05-20T02:09:38;12.90;;;4.07;;
74064;SDS011;62421;51.412;5.432;2023-05-20T02:12:04;11.20;;;4.32;;
74064;SDS011;62421;51.412;5.432;2023-05-20T02:14:30;10.90;;;4.67;;
74064;SDS011;62421;51.412;5.432;2023-05-20T02:16:56;14.80;;;3.97;;
74064;SDS011;62421;51.412;5.432;2023-05-20T02:19:21;10.07;;;3.73;;
74064;SDS011;62421;51.412;5.432;2023-05-20T02:21:47;12.30;;;4.30;;
74064;SDS011;62421;51.412;5.432;2023-05-20T02:24:13;9.07;;;3.30;;
74064;SDS011;62421;51.412;5.432;2023-05-20T02:26:39;12.73;;;4.17;;
74064;SDS011;62421;51.412;5.432;2023-05-20T02:29:05;8.15;;;3.55;;
74064;SDS011;62421;51.412;5.432;2023-05-20T02:31:30;7.50;;;4.00;;
74064;SDS011;62421;51.412;5.432;2023-05-20T02:33:56;13.60;;;3.43;;
74064;SDS011;62421;51.412;5.432;2023-05-20T02:36:21;11.35;;;4.22;;
74064;SDS011;62421;51.412;5.432;2023-05-20T02:38:47;12.10;;;3.80;;
74064;SDS011;62421;51.412;5.432;2023-05-20T02:41:12;14.43;;;4.73;;
74064;SDS011;62421;51.412;5.432;2023-05-20T02:43:38;12.85;;;3.47;;
74064;SDS011;62421;51.412;5.432;2023-05-20T02:46:04;13.70;;;3.95;;
74064;SDS011;62421;51.412;5.432;2023-05-20T02:48:30;11.98;;;4.18;;
74064;SDS011;62421;51.412;5.432;2023-05-20T02:50:56;10.63;;;4.25;;
74064;SDS011;62421;51.412;5.432;2023-05-20T02:53:21;11.37;;;4.10;;
74064;SDS011;62421;51.412;5.432;2023-05-20T02:55:46;11.00;;;4.10;;
74064;SDS011;62421;51.412;5.432;2023-05-20T02:58:12;8.45;;;3.30;;
74064;SDS011;62421;51.412;5.432;2023-05-20T03:00:38;13.67;;;5.17;;
74064;SDS011;62421;51.412;5.432;2023-05-20T03:03:05;10.57;;;4.50;;
74064;SDS011;62421;51.412;5.432;2023-05-20T03:05:31;12.63;;;4.60;;
74064;SDS011;62421;51.412;5.432;2023-05-20T03:07:57;7.53;;;3.50;;
74064;SDS011;62421;51.412;5.432;2023-05-20T03:10:22;14.13;;;4.27;;
74064;SDS011;62421;51.412;5.432;2023-05-20T03:12:48;12.70;;;4.67;;
74064;SDS011;62421;51.412;5.432;2023-05-20T03:15:13;14.87;;;4.20;;
74064;SDS011;62421;51.412;5.432;2023-05-20T03:17:39;10.37;;;4.70;;
74064;SDS011;62421;51.412;5.432;2023-05-20T03:20:04;13.35;;;4.25;;
74064;SDS011;62421;51.412;5.432;2023-05-20T03:22:31;15.67;;;5.10;;
74064;SDS011;62421;51.412;5.432;2023-05-20T03:24:56;16.40;;;4.25;;
74064;SDS011;62421;51.412;5.432;2023-05-20T03:27:24;14.02;;;4.50;;
74064;SDS011;62421;51.412;5.432;2023-05-20T03:29:51;10.10;;;4.17;;
74064;SDS011;62421;51.412;5.432;2023-05-20T03:32:19;11.27;;;5.03;;
74064;SDS011;62421;51.412;5.432;2023-05-20T03:34:45;12.23;;;4.93;;
74064;SDS011;62421;51.412;5.432;2023-05-20T03:37:10;9.27;;;3.92;;
74064;SDS011;62421;51.412;5.432;2023-05-20T03:39:35;13.95;;;4.53;;
74064;SDS011;62421;51.412;5.432;2023-05-20T03:42:01;14.53;;;4.00;;
74064;SDS011;62421;51.412;5.432;2023-05-20T03:44:26;14.27;;;4.53;;
74064;SDS011;62421;51.412;5.432;2023-05-20T03:46:52;19.57;;;5.07;;
74064;SDS011;62421;51.412;5.432;2023-05-20T03:49:17;10.10;;;3.87;;
74064;SDS011;62421;51.412;5.432;2023-05-20T03:51:42;10.13;;;4.33;;
74064;SDS011;62421;51.412;5.432;2023-05-20T03:54:08;15.33;;;5.47;;
74064;SDS011;62421;51.412;5.432;2023-05-20T03:56:33;10.73;;;3.85;;
74064;SDS011;62421;51.412;5.432;2023-05-20T03:58:58;9.30;;;4.45;;
74064;SDS011;62421;51.412;5.432;2023-05-20T04:01:24;11.53;;;4.33;;
74064;SDS011;62421;51.412;5.432;2023-05-20T04:03:50;16.93;;;4.43;;
74064;SDS011;62421;51.412;5.432;2023-05-20T04:06:15;13.63;;;5.00;;
74064;SDS011;62421;51.412;5.432;2023-05-20T04:08:40;11.47;;;4.40;;
74064;SDS011;62421;51.412;5.432;2023-05-20T04:11:06;8.63;;;4.03;;
74064;SDS011;62421;51.412;5.432;2023-05-20T04:13:31;11.83;;;4.57;;
74064;SDS011;62421;51.412;5.432;2023-05-20T04:15:57;13.07;;;4.45;;
74064;SDS011;62421;51.412;5.432;2023-05-20T04:18:23;10.70;;;4.70;;
74064;SDS011;62421;51.412;5.432;2023-05-20T04:20:49;11.40;;;4.07;;
74064;SDS011;62421;51.412;5.432;2023-05-20T04:23:19;10.77;;;4.10;;
74064;SDS011;62421;51.412;5.432;2023-05-20T04:25:44;10.17;;;4.20;;
74064;SDS011;62421;51.412;5.432;2023-05-20T04:28:10;10.43;;;4.95;;
74064;SDS011;62421;51.412;5.432;2023-05-20T04:30:38;10.13;;;5.13;;
74064;SDS011;62421;51.412;5.432;2023-05-20T04:33:03;13.40;;;4.47;;
74064;SDS011;62421;51.412;5.432;2023-05-20T04:35:28;10.07;;;5.00;;
74064;SDS011;62421;51.412;5.432;2023-05-20T04:37:54;12.50;;;4.40;;
74064;SDS011;62421;51.412;5.432;2023-05-20T04:40:20;10.70;;;4.88;;
74064;SDS011;62421;51.412;5.432;2023-05-20T04:42:45;9.87;;;4.63;;
74064;SDS011;62421;51.412;5.432;2023-05-20T04:45:11;10.93;;;4.80;;
74064;SDS011;62421;51.412;5.432;2023-05-20T04:47:36;9.32;;;5.03;;
74064;SDS011;62421;51.412;5.432;2023-05-20T04:50:11;12.23;;;4.13;;
74064;SDS011;62421;51.412;5.432;2023-05-20T04:52:40;9.63;;;3.90;;
74064;SDS011;62421;51.412;5.432;2023-05-20T04:55:10;11.27;;;3.90;;
74064;SDS011;62421;51.412;5.432;2023-05-20T04:57:36;10.02;;;4.13;;
74064;SDS011;62421;51.412;5.432;2023-05-20T05:00:05;13.38;;;4.20;;
74064;SDS011;62421;51.412;5.432;2023-05-20T05:02:33;9.40;;;4.07;;
74064;SDS011;62421;51.412;5.432;2023-05-20T05:04:58;13.43;;;3.70;;
74064;SDS011;62421;51.412;5.432;2023-05-20T05:07:24;7.60;;;3.77;;
74064;SDS011;62421;51.412;5.432;2023-05-20T05:09:49;9.27;;;3.30;;
74064;SDS011;62421;51.412;5.432;2023-05-20T05:12:15;10.00;;;3.83;;
74064;SDS011;62421;51.412;5.432;2023-05-20T05:14:40;11.60;;;3.50;;
74064;SDS011;62421;51.412;5.432;2023-05-20T05:17:06;10.77;;;4.40;;
74064;SDS011;62421;51.412;5.432;2023-05-20T05:19:31;8.47;;;4.03;;
74064;SDS011;62421;51.412;5.432;2023-05-20T05:21:56;9.02;;;3.67;;
74064;SDS011;62421;51.412;5.432;2023-05-20T05:24:22;8.30;;;3.67;;
74064;SDS011;62421;51.412;5.432;2023-05-20T05:26:48;10.40;;;3.70;;
74064;SDS011;62421;51.412;5.432;2023-05-20T05:29:17;8.52;;;3.78;;
74064;SDS011;62421;51.412;5.432;2023-05-20T05:31:43;10.43;;;4.07;;
74064;SDS011;62421;51.412;5.432;2023-05-20T05:34:08;9.87;;;4.13;;
74064;SDS011;62421;51.412;5.432;2023-05-20T05:36:33;15.20;;;5.00;;
74064;SDS011;62421;51.412;5.432;2023-05-20T05:38:59;8.57;;;3.47;;
74064;SDS011;62421;51.412;5.432;2023-05-20T05:41:24;14.93;;;4.53;;
74064;SDS011;62421;51.412;5.432;2023-05-20T05:43:50;12.50;;;4.53;;
74064;SDS011;62421;51.412;5.432;2023-05-20T05:46:16;9.82;;;4.10;;
74064;SDS011;62421;51.412;5.432;2023-05-20T05:48:42;8.13;;;3.80;;
74064;SDS011;62421;51.412;5.432;2023-05-20T05:51:12;10.10;;;4.53;;
74064;SDS011;62421;51.412;5.432;2023-05-20T05:53:38;8.47;;;3.67;;
74064;SDS011;62421;51.412;5.432;2023-05-20T05:56:04;9.67;;;3.63;;
74064;SDS011;62421;51.412;5.432;2023-05-20T05:58:29;10.32;;;3.78;;
74064;SDS011;62421;51.412;5.432;2023-05-20T06:00:55;15.13;;;4.90;;
74064;SDS011;62421;51.412;5.432;2023-05-20T06:03:20;10.43;;;4.70;;
74064;SDS011;62421;51.412;5.432;2023-05-20T06:05:45;10.37;;;4.60;;
74064;SDS011;62421;51.412;5.432;2023-05-20T06:08:11;8.32;;;4.10;;
74064;SDS011;62421;51.412;5.432;2023-05-20T06:10:36;21.27;;;6.60;;
74064;SDS011;62421;51.412;5.432;2023-05-20T06:13:02;9.83;;;4.17;;
74064;SDS011;62421;51.412;5.432;2023-05-20T06:15:27;8.90;;;3.80;;
74064;SDS011;62421;51.412;5.432;2023-05-20T06:17:52;11.13;;;4.73;;
74064;SDS011;62421;51.412;5.432;2023-05-20T06:20:18;7.90;;;3.93;;
74064;SDS011;62421;51.412;5.432;2023-05-20T06:22:43;10.57;;;4.00;;
74064;SDS011;62421;51.412;5.432;2023-05-20T06:25:09;12.43;;;3.73;;
74064;SDS011;62421;51.412;5.432;2023-05-20T06:27:34;12.57;;;3.95;;
74064;SDS011;62421;51.412;5.432;2023-05-20T06:30:00;8.77;;;4.23;;
74064;SDS011;62421;51.412;5.432;2023-05-20T06:32:26;15.07;;;4.20;;
74064;SDS011;62421;51.412;5.432;2023-05-20T06:34:52;11.03;;;4.27;;
74064;SDS011;62421;51.412;5.432;2023-05-20T06:37:17;8.60;;;3.93;;
74064;SDS011;62421;51.412;5.432;2023-05-20T06:39:42;10.63;;;4.40;;
74064;SDS011;62421;51.412;5.432;2023-05-20T06:42:08;11.82;;;4.63;;
74064;SDS011;62421;51.412;5.432;2023-05-20T06:44:33;7.80;;;3.93;;
74064;SDS011;62421;51.412;5.432;2023-05-20T06:46:58;9.70;;;3.83;;
74064;SDS011;62421;51.412;5.432;2023-05-20T06:49:24;9.33;;;4.07;;
74064;SDS011;62421;51.412;5.432;2023-05-20T06:51:49;12.53;;;4.07;;
74064;SDS011;62421;51.412;5.432;2023-05-20T06:54:14;9.37;;;3.77;;
74064;SDS011;62421;51.412;5.432;2023-05-20T06:56:40;10.32;;;3.60;;
74064;SDS011;62421;51.412;5.432;2023-05-20T06:59:05;10.33;;;3.13;;
74064;SDS011;62421;51.412;5.432;2023-05-20T07:01:31;7.30;;;3.80;;
74064;SDS011;62421;51.412;5.432;2023-05-20T07:03:57;7.60;;;3.67;;
74064;SDS011;62421;51.412;5.432;2023-05-20T07:06:22;11.07;;;3.53;;
74064;SDS011;62421;51.412;5.432;2023-05-20T07:08:48;12.40;;;3.77;;
74064;SDS011;62421;51.412;5.432;2023-05-20T07:11:13;10.63;;;4.00;;
74064;SDS011;62421;51.412;5.432;2023-05-20T07:13:38;5.30;;;2.30;;
74064;SDS011;62421;51.412;5.432;2023-05-20T07:16:04;9.03;;;3.00;;
74064;SDS011;62421;51.412;5.432;2023-05-20T07:18:29;6.57;;;3.00;;
74064;SDS011;62421;51.412;5.432;2023-05-20T07:20:55;6.10;;;2.90;;
74064;SDS011;62421;51.412;5.432;2023-05-20T07:23:21;9.68;;;3.40;;
74064;SDS011;62421;51.412;5.432;2023-05-20T07:25:47;6.87;;;3.30;;
74064;SDS011;62421;51.412;5.432;2023-05-20T07:28:14;6.10;;;3.40;;
74064;SDS011;62421;51.412;5.432;2023-05-20T07:30:41;7.45;;;3.22;;
74064;SDS011;62421;51.412;5.432;2023-05-20T07:33:10;9.45;;;2.63;;
74064;SDS011;62421;51.412;5.432;2023-05-20T07:35:35;12.30;;;3.17;;
74064;SDS011;62421;51.412;5.432;2023-05-20T07:38:01;8.33;;;2.80;;
74064;SDS011;62421;51.412;5.432;2023-05-20T07:40:26;11.10;;;3.53;;
74064;SDS011;62421;51.412;5.432;2023-05-20T07:42:51;10.43;;;3.23;;
74064;SDS011;62421;51.412;5.432;2023-05-20T07:45:17;12.97;;;3.13;;
74064;SDS011;62421;51.412;5.432;2023-05-20T07:47:42;8.35;;;2.80;;
74064;SDS011;62421;51.412;5.432;2023-05-20T07:50:08;7.93;;;2.70;;
74064;SDS011;62421;51.412;5.432;2023-05-20T07:52:33;4.50;;;2.73;;
74064;SDS011;62421;51.412;5.432;2023-05-20T07:54:58;8.10;;;2.63;;
74064;SDS011;62421;51.412;5.432;2023-05-20T07:57:24;12.83;;;3.00;;
74064;SDS011;62421;51.412;5.432;2023-05-20T07:59:50;5.55;;;2.75;;
74064;SDS011;62421;51.412;5.432;2023-05-20T08:02:15;11.57;;;3.07;;
74064;SDS011;62421;51.412;5.432;2023-05-20T08:04:41;7.18;;;3.00;;
74064;SDS011;62421;51.412;5.432;2023-05-20T08:07:07;6.90;;;2.37;;
74064;SDS011;62421;51.412;5.432;2023-05-20T08:09:32;8.47;;;2.90;;
74064;SDS011;62421;51.412;5.432;2023-05-20T08:11:58;6.65;;;3.45;;
74064;SDS011;62421;51.412;5.432;2023-05-20T08:14:23;7.97;;;3.37;;
74064;SDS011;62421;51.412;5.432;2023-05-20T08:16:49;6.07;;;3.00;;
74064;SDS011;62421;51.412;5.432;2023-05-20T08:19:14;6.22;;;3.45;;
74064;SDS011;62421;51.412;5.432;2023-05-20T08:21:39;6.25;;;2.65;;
74064;SDS011;62421;51.412;5.432;2023-05-20T08:24:05;6.10;;;2.03;;
74064;SDS011;62421;51.412;5.432;2023-05-20T08:26:30;6.60;;;3.60;;
74064;SDS011;62421;51.412;5.432;2023-05-20T08:28:55;7.50;;;2.73;;
74064;SDS011;62421;51.412;5.432;2023-05-20T08:31:21;7.33;;;2.10;;
74064;SDS011;62421;51.412;5.432;2023-05-20T08:33:46;6.10;;;2.47;;
74064;SDS011;62421;51.412;5.432;2023-05-20T08:36:12;7.77;;;2.70;;
74064;SDS011;62421;51.412;5.432;2023-05-20T08:38:37;9.93;;;3.05;;
74064;SDS011;62421;51.412;5.432;2023-05-20T08:41:02;8.23;;;3.03;;
74064;SDS011;62421;51.412;5.432;2023-05-20T08:43:28;4.43;;;2.30;;
74064;SDS011;62421;51.412;5.432;2023-05-20T08:45:54;8.55;;;3.10;;
74064;SDS011;62421;51.412;5.432;2023-05-20T08:48:21;6.40;;;2.80;;
74064;SDS011;62421;51.412;5.432;2023-05-20T08:50:51;7.50;;;2.80;;
74064;SDS011;62421;51.412;5.432;2023-05-20T08:53:21;6.18;;;2.90;;
74064;SDS011;62421;51.412;5.432;2023-05-20T08:55:53;6.18;;;2.83;;
74064;SDS011;62421;51.412;5.432;2023-05-20T08:58:21;8.18;;;2.80;;
74064;SDS011;62421;51.412;5.432;2023-05-20T09:00:48;6.78;;;3.05;;
74064;SDS011;62421;51.412;5.432;2023-05-20T09:03:13;9.00;;;2.63;;
74064;SDS011;62421;51.412;5.432;2023-05-20T09:05:38;5.60;;;2.87;;
74064;SDS011;62421;51.412;5.432;2023-05-20T09:08:07;6.57;;;2.88;;
74064;SDS011;62421;51.412;5.432;2023-05-20T09:10:35;7.07;;;2.50;;
74064;SDS011;62421;51.412;5.432;2023-05-20T09:13:01;4.37;;;2.63;;
74064;SDS011;62421;51.412;5.432;2023-05-20T09:15:28;10.05;;;2.03;;
74064;SDS011;62421;51.412;5.432;2023-05-20T09:18:00;6.30;;;2.70;;
74064;SDS011;62421;51.412;5.432;2023-05-20T09:20:26;6.90;;;2.42;;
74064;SDS011;62421;51.412;5.432;2023-05-20T09:22:59;5.55;;;2.30;;
74064;SDS011;62421;51.412;5.432;2023-05-20T09:25:26;6.70;;;3.17;;
74064;SDS011;62421;51.412;5.432;2023-05-20T09:27:52;4.57;;;2.50;;
74064;SDS011;62421;51.412;5.432;2023-05-20T09:30:18;6.72;;;2.85;;
74064;SDS011;62421;51.412;5.432;2023-05-20T09:32:45;5.05;;;2.20;;
74064;SDS011;62421;51.412;5.432;2023-05-20T09:35:17;6.88;;;2.97;;
74064;SDS011;62421;51.412;5.432;2023-05-20T09:37:43;5.87;;;2.33;;
74064;SDS011;62421;51.412;5.432;2023-05-20T09:40:11;6.65;;;2.65;;
74064;SDS011;62421;51.412;5.432;2023-05-20T09:42:41;7.60;;;3.00;;
74064;SDS011;62421;51.412;5.432;2023-05-20T09:45:09;6.40;;;2.72;;
74064;SDS011;62421;51.412;5.432;2023-05-20T09:47:37;7.60;;;3.57;;
74064;SDS011;62421;51.412;5.432;2023-05-20T09:50:07;13.18;;;3.25;;
74064;SDS011;62421;51.412;5.432;2023-05-20T09:52:34;8.23;;;3.25;;
74064;SDS011;62421;51.412;5.432;2023-05-20T09:55:01;6.57;;;2.83;;
74064;SDS011;62421;51.412;5.432;2023-05-20T09:57:29;5.07;;;2.83;;
74064;SDS011;62421;51.412;5.432;2023-05-20T09:59:57;7.13;;;3.13;;
74064;SDS011;62421;51.412;5.432;2023-05-20T10:02:23;7.87;;;3.50;;
74064;SDS011;62421;51.412;5.432;2023-05-20T10:04:48;6.00;;;3.00;;
74064;SDS011;62421;51.412;5.432;2023-05-20T10:07:21;5.95;;;2.95;;
74064;SDS011;62421;51.412;5.432;2023-05-20T10:12:34;5.70;;;2.95;;
74064;SDS011;62421;51.412;5.432;2023-05-20T10:20:22;10.52;;;2.80;;
74064;SDS011;62421;51.412;5.432;2023-05-20T10:22:56;5.90;;;2.30;;
74064;SDS011;62421;51.412;5.432;2023-05-20T10:25:23;7.93;;;2.50;;
74064;SDS011;62421;51.412;5.432;2023-05-20T10:27:50;5.40;;;2.47;;
74064;SDS011;62421;51.412;5.432;2023-05-20T10:30:16;5.43;;;2.43;;
74064;SDS011;62421;51.412;5.432;2023-05-20T10:32:53;6.93;;;2.78;;
74064;SDS011;62421;51.412;5.432;2023-05-20T10:35:24;4.85;;;2.30;;
74064;SDS011;62421;51.412;5.432;2023-05-20T10:38:06;7.35;;;2.67;;
74064;SDS011;62421;51.412;5.432;2023-05-20T10:40:33;7.17;;;2.57;;
74064;SDS011;62421;51.412;5.432;2023-05-20T10:43:07;5.90;;;2.92;;
74064;SDS011;62421;51.412;5.432;2023-05-20T10:45:46;7.57;;;2.40;;
74064;SDS011;62421;51.412;5.432;2023-05-20T10:48:27;6.20;;;2.85;;
74064;SDS011;62421;51.412;5.432;2023-05-20T10:51:00;7.18;;;3.28;;
74064;SDS011;62421;51.412;5.432;2023-05-20T10:53:37;6.78;;;2.63;;
74064;SDS011;62421;51.412;5.432;2023-05-20T10:56:04;6.50;;;2.97;;
74064;SDS011;62421;51.412;5.432;2023-05-20T10:58:41;9.67;;;2.77;;
74064;SDS011;62421;51.412;5.432;2023-05-20T11:01:06;8.30;;;3.10;;
74064;SDS011;62421;51.412;5.432;2023-05-20T11:03:34;6.65;;;2.47;;
74064;SDS011;62421;51.412;5.432;2023-05-20T11:05:59;12.90;;;3.07;;
74064;SDS011;62421;51.412;5.432;2023-05-20T11:08:27;7.37;;;2.80;;
74064;SDS011;62421;51.412;5.432;2023-05-20T11:10:55;8.43;;;3.30;;
74064;SDS011;62421;51.412;5.432;2023-05-20T11:13:21;8.32;;;2.78;;
74064;SDS011;62421;51.412;5.432;2023-05-20T11:15:47;7.50;;;2.73;;
74064;SDS011;62421;51.412;5.432;2023-05-20T11:18:13;7.33;;;3.00;;
74064;SDS011;62421;51.412;5.432;2023-05-20T11:20:39;7.45;;;2.42;;
74064;SDS011;62421;51.412;5.432;2023-05-20T11:23:04;6.07;;;3.13;;
74064;SDS011;62421;51.412;5.432;2023-05-20T11:25:31;6.40;;;3.03;;
74064;SDS011;62421;51.412;5.432;2023-05-20T11:27:57;9.77;;;2.85;;
74064;SDS011;62421;51.412;5.432;2023-05-20T11:30:23;4.88;;;2.70;;
74064;SDS011;62421;51.412;5.432;2023-05-20T11:32:59;5.57;;;3.20;;
74064;SDS011;62421;51.412;5.432;2023-05-20T11:35:25;6.93;;;2.70;;
74064;SDS011;62421;51.412;5.432;2023-05-20T11:38:03;6.22;;;3.15;;
74064;SDS011;62421;51.412;5.432;2023-05-20T11:40:31;10.18;;;3.17;;
74064;SDS011;62421;51.412;5.432;2023-05-20T11:42:59;4.85;;;3.03;;
74064;SDS011;62421;51.412;5.432;2023-05-20T11:45:25;5.63;;;2.67;;
74064;SDS011;62421;51.412;5.432;2023-05-20T11:47:58;8.37;;;2.10;;
74064;SDS011;62421;51.412;5.432;2023-05-20T11:50:24;5.93;;;2.80;;
74064;SDS011;62421;51.412;5.432;2023-05-20T11:52:56;9.00;;;2.58;;
74064;SDS011;62421;51.412;5.432;2023-05-20T11:55:23;5.22;;;2.50;;
74064;SDS011;62421;51.412;5.432;2023-05-20T11:57:49;4.75;;;2.03;;
74064;SDS011;62421;51.412;5.432;2023-05-20T12:00:14;6.57;;;2.60;;
74064;SDS011;62421;51.412;5.432;2023-05-20T12:02:40;6.15;;;2.50;;
74064;SDS011;62421;51.412;5.432;2023-05-20T12:05:06;6.63;;;2.50;;
74064;SDS011;62421;51.412;5.432;2023-05-20T12:07:32;4.82;;;2.90;;
74064;SDS011;62421;51.412;5.432;2023-05-20T12:09:57;4.97;;;2.20;;
74064;SDS011;62421;51.412;5.432;2023-05-20T12:12:23;6.80;;;2.60;;
74064;SDS011;62421;51.412;5.432;2023-05-20T12:14:49;10.30;;;2.53;;
74064;SDS011;62421;51.412;5.432;2023-05-20T12:17:15;7.88;;;3.08;;
74064;SDS011;62421;51.412;5.432;2023-05-20T12:19:40;5.57;;;2.97;;
74064;SDS011;62421;51.412;5.432;2023-05-20T12:22:06;6.87;;;2.53;;
74064;SDS011;62421;51.412;5.432;2023-05-20T12:24:31;7.37;;;2.90;;
74064;SDS011;62421;51.412;5.432;2023-05-20T12:26:56;5.57;;;2.40;;
74064;SDS011;62421;51.412;5.432;2023-05-20T12:29:22;7.23;;;2.57;;
74064;SDS011;62421;51.412;5.432;2023-05-20T12:31:47;5.80;;;3.08;;
74064;SDS011;62421;51.412;5.432;2023-05-20T12:34:13;5.73;;;1.97;;
74064;SDS011;62421;51.412;5.432;2023-05-20T12:36:38;5.03;;;2.30;;
74064;SDS011;62421;51.412;5.432;2023-05-20T12:39:04;7.10;;;2.88;;
74064;SDS011;62421;51.412;5.432;2023-05-20T12:41:30;4.75;;;2.33;;
74064;SDS011;62421;51.412;5.432;2023-05-20T12:43:55;5.43;;;2.40;;
74064;SDS011;62421;51.412;5.432;2023-05-20T12:46:20;6.57;;;2.53;;
74064;SDS011;62421;51.412;5.432;2023-05-20T12:48:46;5.07;;;2.50;;
74064;SDS011;62421;51.412;5.432;2023-05-20T12:51:12;7.15;;;2.50;;
74064;SDS011;62421;51.412;5.432;2023-05-20T12:53:37;4.90;;;2.33;;
74064;SDS011;62421;51.412;5.432;2023-05-20T12:56:03;7.17;;;2.93;;
74064;SDS011;62421;51.412;5.432;2023-05-20T12:58:28;7.40;;;2.83;;
74064;SDS011;62421;51.412;5.432;2023-05-20T13:00:54;9.27;;;2.97;;
74064;SDS011;62421;51.412;5.432;2023-05-20T13:03:19;7.57;;;2.33;;
74064;SDS011;62421;51.412;5.432;2023-05-20T13:05:45;9.40;;;2.50;;
74064;SDS011;62421;51.412;5.432;2023-05-20T13:08:10;5.33;;;2.40;;
74064;SDS011;62421;51.412;5.432;2023-05-20T13:10:36;6.18;;;2.70;;
74064;SDS011;62421;51.412;5.432;2023-05-20T13:13:01;6.20;;;2.87;;
74064;SDS011;62421;51.412;5.432;2023-05-20T13:15:27;4.40;;;2.33;;
74064;SDS011;62421;51.412;5.432;2023-05-20T13:17:52;9.47;;;3.30;;
74064;SDS011;62421;51.412;5.432;2023-05-20T13:20:18;6.05;;;2.65;;
74064;SDS011;62421;51.412;5.432;2023-05-20T13:22:43;4.97;;;2.60;;
74064;SDS011;62421;51.412;5.432;2023-05-20T13:25:09;7.23;;;3.20;;
74064;SDS011;62421;51.412;5.432;2023-05-20T13:27:34;6.10;;;2.37;;
74064;SDS011;62421;51.412;5.432;2023-05-20T13:30:00;9.57;;;2.87;;
74064;SDS011;62421;51.412;5.432;2023-05-20T13:32:26;6.93;;;2.60;;
74064;SDS011;62421;51.412;5.432;2023-05-20T13:34:51;5.85;;;2.97;;
74064;SDS011;62421;51.412;5.432;2023-05-20T13:37:17;6.87;;;3.07;;
74064;SDS011;62421;51.412;5.432;2023-05-20T13:39:42;6.17;;;2.40;;
74064;SDS011;62421;51.412;5.432;2023-05-20T13:42:07;5.90;;;2.73;;
74064;SDS011;62421;51.412;5.432;2023-05-20T13:44:33;5.83;;;3.10;;
74064;SDS011;62421;51.412;5.432;2023-05-20T13:46:58;7.57;;;3.28;;
74064;SDS011;62421;51.412;5.432;2023-05-20T13:49:24;6.20;;;2.77;;
74064;SDS011;62421;51.412;5.432;2023-05-20T13:51:49;7.10;;;2.77;;
74064;SDS011;62421;51.412;5.432;2023-05-20T13:54:15;9.20;;;3.10;;
74064;SDS011;62421;51.412;5.432;2023-05-20T13:56:40;5.50;;;2.70;;
74064;SDS011;62421;51.412;5.432;2023-05-20T13:59:06;6.57;;;2.67;;
74064;SDS011;62421;51.412;5.432;2023-05-20T14:01:32;4.65;;;2.58;;
74064;SDS011;62421;51.412;5.432;2023-05-20T14:03:57;4.63;;;2.23;;
74064;SDS011;62421;51.412;5.432;2023-05-20T14:06:23;8.80;;;2.40;;
74064;SDS011;62421;51.412;5.432;2023-05-20T14:08:49;5.25;;;2.70;;
74064;SDS011;62421;51.412;5.432;2023-05-20T14:11:14;6.90;;;2.90;;
74064;SDS011;62421;51.412;5.432;2023-05-20T14:13:39;7.93;;;2.27;;
74064;SDS011;62421;51.412;5.432;2023-05-20T14:16:05;6.55;;;2.42;;
74064;SDS011;62421;51.412;5.432;2023-05-20T14:18:31;6.90;;;3.10;;
74064;SDS011;62421;51.412;5.432;2023-05-20T14:20:56;7.33;;;2.93;;
74064;SDS011;62421;51.412;5.432;2023-05-20T14:23:21;10.23;;;3.00;;
74064;SDS011;62421;51.412;5.432;2023-05-20T14:25:47;6.60;;;2.30;;
74064;SDS011;62421;51.412;5.432;2023-05-20T14:28:12;6.93;;;2.67;;
74064;SDS011;62421;51.412;5.432;2023-05-20T14:30:38;6.35;;;2.80;;
74064;SDS011;62421;51.412;5.432;2023-05-20T14:33:03;5.80;;;2.83;;
74064;SDS011;62421;51.412;5.432;2023-05-20T14:35:28;5.77;;;2.13;;
74064;SDS011;62421;51.412;5.432;2023-05-20T14:37:54;6.07;;;2.70;;
74064;SDS011;62421;51.412;5.432;2023-05-20T14:40:19;5.13;;;2.50;;
74064;SDS011;62421;51.412;5.432;2023-05-20T14:42:45;8.98;;;2.88;;
74064;SDS011;62421;51.412;5.432;2023-05-20T14:45:10;8.93;;;4.87;;